Málaga, Spain

26. syyskuuta 2016 klo 00:27 (CEST) (GMT +0200)
IALALHAU2 | | Change Station

Kork 360 ft 36.66 °N, 4.55 °W | Updated 3 minutes ago

Clear
Selkeää
70.5 °F
Tuntuu kuin 76 °F
N
0.0
Tuuli Suunnaltaan vaihteleva Tuuli ilmansuunnasta Pohjoinen
Gusts 0.0 mph

Tänään
Korkea -- | Matala -- °F
--% Sateen mahd.
Eilen
Korkea -- | Matala -- °F
Precip. -- tuumaa
Ilmanpaine 30.09 tuumaa
Näkyvyys -9999.0 mailia
Pilviä
Lämpötilaindeksi 76 °F
Kastepiste 54 °F
Ilmankosteus 56%
Sademäärä Ei saatavilla
Lumensyvyys Ei saatavilla
8:09 AM 8:08 PM
Vähenevä sirppi, 24% visible
METAR LEMG 252200Z 00000KT CAVOK 20/18 Q1019 NOSIG
Ilmanpaine 30.09 tuumaa
Näkyvyys -9999.0 mailia
Pilviä
Lämpötilaindeksi 76 °F
Kastepiste 54 °F
Ilmankosteus 56%
Sademäärä Ei saatavilla
Lumensyvyys Ei saatavilla
8:09 AM 8:08 PM
Vähenevä sirppi, 24% visible
METAR LEMG 252200Z 00000KT CAVOK 20/18 Q1019 NOSIG

10-Day Weather Forecast

×

Almanac

Tähtitiede

Sep. 26, 2016 Nousuaika Laskuaika
Valoisa aika
Porvarillinen hämärä
Nauttinen hämärä
Astronominen hämärä
Kuu
Näkyvän valon pituus
Päivän pituus
Tomorrow will be .
, % of the Moon is Illuminated

Tämän päivän ennätykset

Country Highs Country Lows

Community

WunderPhotos

Upload Photos

1,941,757 photos uploaded!

WunderBlog® & News

Nearby

Ilmanlaatu

  Ilmanlaatu AQ Index Pollutant
Not available.

Lumensyvyys

Station Depth Korkeus

Maanjäristysaktiivisuus

Paikkakunta Distance Mag. Time & Date
Minimum magnitude displayed is 2.5.

Coastal Water Temperatures

Paikka Lämpötila

Stations

Lähimmät sääasemat

Aseman sijainti Lämpötila Tuulen hyytävyys Kastepiste Ilmankosteus Tuuli Precip. Kork Päivitetty Tyyppi